sensor_id;sensor_type;location;lat;lon;timestamp;P1;durP1;ratioP1;P2;durP2;ratioP2
15082;SDS011;7640;53.116;6.878;2023-02-12T00:01:34;35.07;;;12.27;;
15082;SDS011;7640;53.116;6.878;2023-02-12T00:04:03;31.20;;;12.57;;
15082;SDS011;7640;53.116;6.878;2023-02-12T00:06:32;33.40;;;12.40;;
15082;SDS011;7640;53.116;6.878;2023-02-12T00:09:01;27.13;;;12.67;;
15082;SDS011;7640;53.116;6.878;2023-02-12T00:11:29;30.30;;;13.20;;
15082;SDS011;7640;53.116;6.878;2023-02-12T00:13:58;32.63;;;13.37;;
15082;SDS011;7640;53.116;6.878;2023-02-12T00:16:28;34.30;;;13.07;;
15082;SDS011;7640;53.116;6.878;2023-02-12T00:18:58;30.07;;;12.97;;
15082;SDS011;7640;53.116;6.878;2023-02-12T00:21:26;30.43;;;12.87;;
15082;SDS011;7640;53.116;6.878;2023-02-12T00:23:55;35.47;;;13.33;;
15082;SDS011;7640;53.116;6.878;2023-02-12T00:26:24;29.17;;;12.53;;
15082;SDS011;7640;53.116;6.878;2023-02-12T00:28:52;35.00;;;14.13;;
15082;SDS011;7640;53.116;6.878;2023-02-12T00:31:22;38.70;;;13.40;;
15082;SDS011;7640;53.116;6.878;2023-02-12T00:33:53;33.70;;;13.30;;
15082;SDS011;7640;53.116;6.878;2023-02-12T00:36:26;30.23;;;13.03;;
15082;SDS011;7640;53.116;6.878;2023-02-12T00:38:57;31.30;;;13.67;;
15082;SDS011;7640;53.116;6.878;2023-02-12T00:41:26;37.27;;;13.33;;
15082;SDS011;7640;53.116;6.878;2023-02-12T00:43:55;34.67;;;13.83;;
15082;SDS011;7640;53.116;6.878;2023-02-12T00:46:23;37.53;;;13.57;;
15082;SDS011;7640;53.116;6.878;2023-02-12T00:48:52;37.47;;;14.20;;
15082;SDS011;7640;53.116;6.878;2023-02-12T00:51:20;36.37;;;13.57;;
15082;SDS011;7640;53.116;6.878;2023-02-12T00:53:50;34.70;;;13.60;;
15082;SDS011;7640;53.116;6.878;2023-02-12T00:56:19;35.53;;;13.67;;
15082;SDS011;7640;53.116;6.878;2023-02-12T00:58:47;37.90;;;14.63;;
15082;SDS011;7640;53.116;6.878;2023-02-12T01:01:15;34.40;;;14.33;;
15082;SDS011;7640;53.116;6.878;2023-02-12T01:03:44;34.80;;;13.87;;
15082;SDS011;7640;53.116;6.878;2023-02-12T01:06:13;35.57;;;13.23;;
15082;SDS011;7640;53.116;6.878;2023-02-12T01:08:41;35.83;;;14.27;;
15082;SDS011;7640;53.116;6.878;2023-02-12T01:11:11;35.73;;;13.70;;
15082;SDS011;7640;53.116;6.878;2023-02-12T01:13:40;34.03;;;13.57;;
15082;SDS011;7640;53.116;6.878;2023-02-12T01:16:09;33.03;;;13.60;;
15082;SDS011;7640;53.116;6.878;2023-02-12T01:18:42;34.53;;;13.87;;
15082;SDS011;7640;53.116;6.878;2023-02-12T01:21:13;30.77;;;13.43;;
15082;SDS011;7640;53.116;6.878;2023-02-12T01:23:43;37.37;;;13.50;;
15082;SDS011;7640;53.116;6.878;2023-02-12T01:26:14;31.33;;;14.27;;
15082;SDS011;7640;53.116;6.878;2023-02-12T01:28:47;36.30;;;13.43;;
15082;SDS011;7640;53.116;6.878;2023-02-12T01:31:19;33.83;;;13.87;;
15082;SDS011;7640;53.116;6.878;2023-02-12T01:33:51;38.27;;;13.43;;
15082;SDS011;7640;53.116;6.878;2023-02-12T01:36:22;33.00;;;13.73;;
15082;SDS011;7640;53.116;6.878;2023-02-12T01:38:51;39.53;;;14.00;;
15082;SDS011;7640;53.116;6.878;2023-02-12T01:41:23;34.80;;;14.17;;
15082;SDS011;7640;53.116;6.878;2023-02-12T01:44:10;37.57;;;13.63;;
15082;SDS011;7640;53.116;6.878;2023-02-12T01:46:42;33.70;;;14.07;;
15082;SDS011;7640;53.116;6.878;2023-02-12T01:49:13;35.83;;;14.37;;
15082;SDS011;7640;53.116;6.878;2023-02-12T01:51:45;31.37;;;13.67;;
15082;SDS011;7640;53.116;6.878;2023-02-12T01:54:15;36.90;;;14.00;;
15082;SDS011;7640;53.116;6.878;2023-02-12T01:56:46;38.70;;;14.50;;
15082;SDS011;7640;53.116;6.878;2023-02-12T01:59:15;31.93;;;13.97;;
15082;SDS011;7640;53.116;6.878;2023-02-12T02:01:45;34.83;;;13.73;;
15082;SDS011;7640;53.116;6.878;2023-02-12T02:04:14;36.43;;;13.60;;
15082;SDS011;7640;53.116;6.878;2023-02-12T02:06:49;36.23;;;13.63;;
15082;SDS011;7640;53.116;6.878;2023-02-12T02:09:23;38.90;;;14.87;;
15082;SDS011;7640;53.116;6.878;2023-02-12T02:11:54;41.13;;;14.87;;
15082;SDS011;7640;53.116;6.878;2023-02-12T02:14:55;57.23;;;16.30;;
15082;SDS011;7640;53.116;6.878;2023-02-12T02:17:29;37.73;;;14.03;;
15082;SDS011;7640;53.116;6.878;2023-02-12T02:20:18;35.20;;;14.63;;
15082;SDS011;7640;53.116;6.878;2023-02-12T02:23:24;40.67;;;15.27;;
15082;SDS011;7640;53.116;6.878;2023-02-12T02:26:47;40.57;;;13.87;;
15082;SDS011;7640;53.116;6.878;2023-02-12T02:29:45;32.57;;;13.67;;
15082;SDS011;7640;53.116;6.878;2023-02-12T02:32:49;31.53;;;13.80;;
15082;SDS011;7640;53.116;6.878;2023-02-12T02:35:35;33.70;;;14.47;;
15082;SDS011;7640;53.116;6.878;2023-02-12T02:38:12;36.90;;;14.63;;
15082;SDS011;7640;53.116;6.878;2023-02-12T02:40:51;46.37;;;16.00;;
15082;SDS011;7640;53.116;6.878;2023-02-12T02:43:26;36.30;;;14.53;;
15082;SDS011;7640;53.116;6.878;2023-02-12T02:46:02;38.83;;;13.93;;
15082;SDS011;7640;53.116;6.878;2023-02-12T02:48:36;38.53;;;14.77;;
15082;SDS011;7640;53.116;6.878;2023-02-12T02:51:09;40.93;;;15.17;;
15082;SDS011;7640;53.116;6.878;2023-02-12T02:53:43;37.43;;;15.40;;
15082;SDS011;7640;53.116;6.878;2023-02-12T02:56:16;45.30;;;15.50;;
15082;SDS011;7640;53.116;6.878;2023-02-12T02:58:49;40.43;;;15.23;;
15082;SDS011;7640;53.116;6.878;2023-02-12T03:01:24;43.50;;;14.60;;
15082;SDS011;7640;53.116;6.878;2023-02-12T03:03:58;52.17;;;16.77;;
15082;SDS011;7640;53.116;6.878;2023-02-12T03:06:32;48.63;;;16.43;;
15082;SDS011;7640;53.116;6.878;2023-02-12T03:09:08;55.43;;;16.90;;
15082;SDS011;7640;53.116;6.878;2023-02-12T03:11:44;49.70;;;16.87;;
15082;SDS011;7640;53.116;6.878;2023-02-12T03:14:17;53.07;;;18.43;;
15082;SDS011;7640;53.116;6.878;2023-02-12T03:16:52;53.43;;;17.60;;
15082;SDS011;7640;53.116;6.878;2023-02-12T03:19:25;50.63;;;17.23;;
15082;SDS011;7640;53.116;6.878;2023-02-12T03:21:59;58.87;;;18.63;;
15082;SDS011;7640;53.116;6.878;2023-02-12T03:24:31;62.20;;;20.73;;
15082;SDS011;7640;53.116;6.878;2023-02-12T03:27:04;62.93;;;20.27;;
15082;SDS011;7640;53.116;6.878;2023-02-12T03:29:36;71.20;;;19.07;;
15082;SDS011;7640;53.116;6.878;2023-02-12T03:32:13;65.10;;;19.20;;
15082;SDS011;7640;53.116;6.878;2023-02-12T03:34:53;69.57;;;18.40;;
15082;SDS011;7640;53.116;6.878;2023-02-12T03:37:30;59.87;;;17.13;;
15082;SDS011;7640;53.116;6.878;2023-02-12T03:40:04;54.90;;;18.27;;
15082;SDS011;7640;53.116;6.878;2023-02-12T03:42:44;69.67;;;20.37;;
15082;SDS011;7640;53.116;6.878;2023-02-12T03:45:21;67.80;;;18.50;;
15082;SDS011;7640;53.116;6.878;2023-02-12T03:48:05;82.13;;;21.13;;
15082;SDS011;7640;53.116;6.878;2023-02-12T03:50:39;73.10;;;20.93;;
15082;SDS011;7640;53.116;6.878;2023-02-12T03:53:12;74.80;;;20.87;;
15082;SDS011;7640;53.116;6.878;2023-02-12T03:55:41;75.43;;;22.07;;
15082;SDS011;7640;53.116;6.878;2023-02-12T03:58:13;61.77;;;20.80;;
15082;SDS011;7640;53.116;6.878;2023-02-12T04:00:48;80.07;;;20.93;;
15082;SDS011;7640;53.116;6.878;2023-02-12T04:03:19;59.87;;;21.40;;
15082;SDS011;7640;53.116;6.878;2023-02-12T04:05:47;75.60;;;21.63;;
15082;SDS011;7640;53.116;6.878;2023-02-12T04:08:16;62.93;;;21.73;;
15082;SDS011;7640;53.116;6.878;2023-02-12T04:10:48;73.70;;;22.57;;
15082;SDS011;7640;53.116;6.878;2023-02-12T04:13:25;73.03;;;22.57;;
15082;SDS011;7640;53.116;6.878;2023-02-12T04:16:06;69.47;;;23.47;;
15082;SDS011;7640;53.116;6.878;2023-02-12T04:18:48;74.33;;;24.13;;
15082;SDS011;7640;53.116;6.878;2023-02-12T04:21:19;74.17;;;23.20;;
15082;SDS011;7640;53.116;6.878;2023-02-12T04:24:08;76.97;;;23.67;;
15082;SDS011;7640;53.116;6.878;2023-02-12T04:26:47;79.03;;;24.53;;
15082;SDS011;7640;53.116;6.878;2023-02-12T04:29:25;83.80;;;24.97;;
15082;SDS011;7640;53.116;6.878;2023-02-12T04:32:02;89.97;;;25.03;;
15082;SDS011;7640;53.116;6.878;2023-02-12T04:34:37;91.50;;;25.80;;
15082;SDS011;7640;53.116;6.878;2023-02-12T04:37:14;80.53;;;27.03;;
15082;SDS011;7640;53.116;6.878;2023-02-12T04:39:46;75.70;;;26.27;;
15082;SDS011;7640;53.116;6.878;2023-02-12T04:42:16;85.47;;;27.83;;
15082;SDS011;7640;53.116;6.878;2023-02-12T04:44:44;92.93;;;25.77;;
15082;SDS011;7640;53.116;6.878;2023-02-12T04:47:14;83.37;;;27.37;;
15082;SDS011;7640;53.116;6.878;2023-02-12T04:49:45;90.23;;;27.03;;
15082;SDS011;7640;53.116;6.878;2023-02-12T04:52:13;85.13;;;25.57;;
15082;SDS011;7640;53.116;6.878;2023-02-12T04:54:41;85.00;;;26.63;;
15082;SDS011;7640;53.116;6.878;2023-02-12T04:57:10;86.37;;;26.63;;
15082;SDS011;7640;53.116;6.878;2023-02-12T04:59:38;78.20;;;25.73;;
15082;SDS011;7640;53.116;6.878;2023-02-12T05:02:06;90.20;;;27.00;;
15082;SDS011;7640;53.116;6.878;2023-02-12T05:04:35;83.60;;;27.03;;
15082;SDS011;7640;53.116;6.878;2023-02-12T05:07:05;93.30;;;27.53;;
15082;SDS011;7640;53.116;6.878;2023-02-12T05:09:33;101.73;;;27.53;;
15082;SDS011;7640;53.116;6.878;2023-02-12T05:12:01;85.97;;;26.53;;
15082;SDS011;7640;53.116;6.878;2023-02-12T05:14:30;111.93;;;30.33;;
15082;SDS011;7640;53.116;6.878;2023-02-12T05:16:58;115.17;;;29.77;;
15082;SDS011;7640;53.116;6.878;2023-02-12T05:19:27;88.80;;;25.30;;
15082;SDS011;7640;53.116;6.878;2023-02-12T05:21:55;116.90;;;28.90;;
15082;SDS011;7640;53.116;6.878;2023-02-12T05:24:25;120.73;;;28.17;;
15082;SDS011;7640;53.116;6.878;2023-02-12T05:26:53;107.30;;;27.43;;
15082;SDS011;7640;53.116;6.878;2023-02-12T05:29:21;132.93;;;31.43;;
15082;SDS011;7640;53.116;6.878;2023-02-12T05:31:50;120.87;;;29.03;;
15082;SDS011;7640;53.116;6.878;2023-02-12T05:34:18;132.77;;;27.47;;
15082;SDS011;7640;53.116;6.878;2023-02-12T05:36:46;106.13;;;27.57;;
15082;SDS011;7640;53.116;6.878;2023-02-12T05:39:15;115.37;;;25.63;;
15082;SDS011;7640;53.116;6.878;2023-02-12T05:41:45;98.83;;;27.47;;
15082;SDS011;7640;53.116;6.878;2023-02-12T05:44:13;134.13;;;27.77;;
15082;SDS011;7640;53.116;6.878;2023-02-12T05:46:41;135.97;;;28.30;;
15082;SDS011;7640;53.116;6.878;2023-02-12T05:49:10;113.20;;;27.30;;
15082;SDS011;7640;53.116;6.878;2023-02-12T05:51:38;122.07;;;28.10;;
15082;SDS011;7640;53.116;6.878;2023-02-12T05:54:07;102.80;;;25.13;;
15082;SDS011;7640;53.116;6.878;2023-02-12T05:56:37;110.73;;;24.10;;
15082;SDS011;7640;53.116;6.878;2023-02-12T05:59:13;89.20;;;19.73;;
15082;SDS011;7640;53.116;6.878;2023-02-12T06:01:45;77.57;;;19.40;;
15082;SDS011;7640;53.116;6.878;2023-02-12T06:04:16;70.93;;;18.47;;
15082;SDS011;7640;53.116;6.878;2023-02-12T06:06:50;60.27;;;16.50;;
15082;SDS011;7640;53.116;6.878;2023-02-12T06:09:19;41.10;;;13.77;;
15082;SDS011;7640;53.116;6.878;2023-02-12T06:11:48;38.10;;;12.80;;
15082;SDS011;7640;53.116;6.878;2023-02-12T06:14:19;32.57;;;12.33;;
15082;SDS011;7640;53.116;6.878;2023-02-12T06:16:48;51.43;;;14.10;;
15082;SDS011;7640;53.116;6.878;2023-02-12T06:19:18;60.87;;;13.87;;
15082;SDS011;7640;53.116;6.878;2023-02-12T06:21:47;42.63;;;14.43;;
15082;SDS011;7640;53.116;6.878;2023-02-12T06:24:15;78.90;;;16.60;;
15082;SDS011;7640;53.116;6.878;2023-02-12T06:26:44;55.20;;;15.43;;
15082;SDS011;7640;53.116;6.878;2023-02-12T06:29:16;37.40;;;14.30;;
15082;SDS011;7640;53.116;6.878;2023-02-12T06:31:46;35.57;;;13.90;;
15082;SDS011;7640;53.116;6.878;2023-02-12T06:34:15;36.73;;;13.33;;
15082;SDS011;7640;53.116;6.878;2023-02-12T06:36:44;33.40;;;12.33;;
15082;SDS011;7640;53.116;6.878;2023-02-12T06:39:14;33.40;;;13.23;;
15082;SDS011;7640;53.116;6.878;2023-02-12T06:41:43;38.97;;;14.33;;
15082;SDS011;7640;53.116;6.878;2023-02-12T06:44:12;47.30;;;15.23;;
15082;SDS011;7640;53.116;6.878;2023-02-12T06:46:42;44.83;;;14.50;;
15082;SDS011;7640;53.116;6.878;2023-02-12T06:49:10;54.73;;;14.77;;
15082;SDS011;7640;53.116;6.878;2023-02-12T06:51:41;54.27;;;15.97;;
15082;SDS011;7640;53.116;6.878;2023-02-12T06:54:13;53.63;;;15.23;;
15082;SDS011;7640;53.116;6.878;2023-02-12T06:56:44;52.00;;;14.40;;
15082;SDS011;7640;53.116;6.878;2023-02-12T06:59:12;68.77;;;15.90;;
15082;SDS011;7640;53.116;6.878;2023-02-12T07:01:44;64.30;;;15.73;;
15082;SDS011;7640;53.116;6.878;2023-02-12T07:04:13;83.10;;;17.50;;
15082;SDS011;7640;53.116;6.878;2023-02-12T07:06:41;67.87;;;16.63;;
15082;SDS011;7640;53.116;6.878;2023-02-12T07:09:09;93.47;;;18.13;;
15082;SDS011;7640;53.116;6.878;2023-02-12T07:11:38;74.13;;;16.63;;
15082;SDS011;7640;53.116;6.878;2023-02-12T07:14:06;70.40;;;17.13;;
15082;SDS011;7640;53.116;6.878;2023-02-12T07:16:38;57.50;;;14.47;;
15082;SDS011;7640;53.116;6.878;2023-02-12T07:19:08;54.23;;;16.77;;
15082;SDS011;7640;53.116;6.878;2023-02-12T07:21:38;54.17;;;15.80;;
15082;SDS011;7640;53.116;6.878;2023-02-12T07:24:08;48.07;;;15.33;;
15082;SDS011;7640;53.116;6.878;2023-02-12T07:26:38;59.30;;;15.90;;
15082;SDS011;7640;53.116;6.878;2023-02-12T07:29:07;52.03;;;16.13;;
15082;SDS011;7640;53.116;6.878;2023-02-12T07:31:35;47.90;;;15.60;;
15082;SDS011;7640;53.116;6.878;2023-02-12T07:34:04;46.93;;;15.50;;
15082;SDS011;7640;53.116;6.878;2023-02-12T07:36:34;54.43;;;17.00;;
15082;SDS011;7640;53.116;6.878;2023-02-12T07:39:02;64.90;;;17.37;;
15082;SDS011;7640;53.116;6.878;2023-02-12T07:41:32;74.73;;;17.77;;
15082;SDS011;7640;53.116;6.878;2023-02-12T07:44:03;75.13;;;17.73;;
15082;SDS011;7640;53.116;6.878;2023-02-12T07:46:36;66.83;;;18.07;;
15082;SDS011;7640;53.116;6.878;2023-02-12T07:49:07;133.43;;;21.50;;
15082;SDS011;7640;53.116;6.878;2023-02-12T07:51:40;73.13;;;19.00;;
15082;SDS011;7640;53.116;6.878;2023-02-12T07:54:09;70.20;;;17.87;;
15082;SDS011;7640;53.116;6.878;2023-02-12T07:56:38;97.87;;;19.50;;
15082;SDS011;7640;53.116;6.878;2023-02-12T07:59:09;124.27;;;24.47;;
15082;SDS011;7640;53.116;6.878;2023-02-12T08:01:40;101.83;;;19.40;;
15082;SDS011;7640;53.116;6.878;2023-02-12T08:04:13;128.47;;;23.57;;
15082;SDS011;7640;53.116;6.878;2023-02-12T08:06:45;94.47;;;23.50;;
15082;SDS011;7640;53.116;6.878;2023-02-12T08:09:16;95.20;;;23.67;;
15082;SDS011;7640;53.116;6.878;2023-02-12T08:11:46;69.43;;;21.87;;
15082;SDS011;7640;53.116;6.878;2023-02-12T08:14:16;68.27;;;23.27;;
15082;SDS011;7640;53.116;6.878;2023-02-12T08:16:47;61.27;;;21.43;;
15082;SDS011;7640;53.116;6.878;2023-02-12T08:19:16;51.87;;;19.53;;
15082;SDS011;7640;53.116;6.878;2023-02-12T08:21:53;50.07;;;19.13;;
15082;SDS011;7640;53.116;6.878;2023-02-12T08:24:22;44.10;;;18.90;;
15082;SDS011;7640;53.116;6.878;2023-02-12T08:26:51;48.57;;;19.90;;
15082;SDS011;7640;53.116;6.878;2023-02-12T08:29:20;39.30;;;17.33;;
15082;SDS011;7640;53.116;6.878;2023-02-12T08:31:53;43.70;;;17.97;;
15082;SDS011;7640;53.116;6.878;2023-02-12T08:34:24;39.87;;;17.77;;
15082;SDS011;7640;53.116;6.878;2023-02-12T08:36:55;42.10;;;17.97;;
15082;SDS011;7640;53.116;6.878;2023-02-12T08:39:26;35.10;;;16.47;;
15082;SDS011;7640;53.116;6.878;2023-02-12T08:41:56;39.33;;;16.93;;
15082;SDS011;7640;53.116;6.878;2023-02-12T08:44:26;37.13;;;15.90;;
15082;SDS011;7640;53.116;6.878;2023-02-12T08:46:56;36.00;;;15.60;;
15082;SDS011;7640;53.116;6.878;2023-02-12T08:49:26;34.50;;;15.97;;
15082;SDS011;7640;53.116;6.878;2023-02-12T08:51:57;37.53;;;16.80;;
15082;SDS011;7640;53.116;6.878;2023-02-12T08:54:28;35.17;;;15.70;;
15082;SDS011;7640;53.116;6.878;2023-02-12T08:56:58;35.67;;;16.50;;
15082;SDS011;7640;53.116;6.878;2023-02-12T08:59:29;33.87;;;16.00;;
15082;SDS011;7640;53.116;6.878;2023-02-12T09:01:57;34.43;;;15.07;;
15082;SDS011;7640;53.116;6.878;2023-02-12T09:04:27;30.30;;;14.80;;
15082;SDS011;7640;53.116;6.878;2023-02-12T09:06:56;27.10;;;14.30;;
15082;SDS011;7640;53.116;6.878;2023-02-12T09:09:25;27.97;;;13.20;;
15082;SDS011;7640;53.116;6.878;2023-02-12T09:11:54;29.50;;;14.73;;
15082;SDS011;7640;53.116;6.878;2023-02-12T09:14:22;29.23;;;14.00;;
15082;SDS011;7640;53.116;6.878;2023-02-12T09:16:51;30.07;;;14.43;;
15082;SDS011;7640;53.116;6.878;2023-02-12T09:19:20;32.47;;;15.57;;
15082;SDS011;7640;53.116;6.878;2023-02-12T09:21:52;31.03;;;14.47;;
15082;SDS011;7640;53.116;6.878;2023-02-12T09:24:23;35.47;;;16.77;;
15082;SDS011;7640;53.116;6.878;2023-02-12T09:26:53;30.90;;;15.13;;
15082;SDS011;7640;53.116;6.878;2023-02-12T09:29:22;30.60;;;15.80;;
15082;SDS011;7640;53.116;6.878;2023-02-12T09:31:51;28.37;;;14.93;;
15082;SDS011;7640;53.116;6.878;2023-02-12T09:34:19;27.33;;;13.97;;
15082;SDS011;7640;53.116;6.878;2023-02-12T09:36:48;27.70;;;14.43;;
15082;SDS011;7640;53.116;6.878;2023-02-12T09:39:16;26.30;;;14.00;;
15082;SDS011;7640;53.116;6.878;2023-02-12T09:41:49;27.30;;;15.00;;
15082;SDS011;7640;53.116;6.878;2023-02-12T09:44:49;23.33;;;13.23;;
15082;SDS011;7640;53.116;6.878;2023-02-12T09:47:29;29.20;;;14.77;;
15082;SDS011;7640;53.116;6.878;2023-02-12T09:50:10;26.27;;;14.47;;
15082;SDS011;7640;53.116;6.878;2023-02-12T09:52:54;28.27;;;14.23;;
15082;SDS011;7640;53.116;6.878;2023-02-12T09:55:24;26.23;;;14.33;;
15082;SDS011;7640;53.116;6.878;2023-02-12T09:57:58;26.27;;;15.17;;
15082;SDS011;7640;53.116;6.878;2023-02-12T10:00:29;30.90;;;16.03;;
15082;SDS011;7640;53.116;6.878;2023-02-12T10:02:59;31.97;;;15.80;;
15082;SDS011;7640;53.116;6.878;2023-02-12T10:05:31;30.73;;;16.30;;
15082;SDS011;7640;53.116;6.878;2023-02-12T10:08:14;29.53;;;15.17;;
15082;SDS011;7640;53.116;6.878;2023-02-12T10:11:23;31.77;;;17.03;;
15082;SDS011;7640;53.116;6.878;2023-02-12T10:17:28;31.53;;;16.33;;
15082;SDS011;7640;53.116;6.878;2023-02-12T10:23:16;30.67;;;16.43;;
15082;SDS011;7640;53.116;6.878;2023-02-12T10:26:06;30.90;;;15.97;;
15082;SDS011;7640;53.116;6.878;2023-02-12T10:28:44;32.43;;;16.30;;
15082;SDS011;7640;53.116;6.878;2023-02-12T10:31:16;29.53;;;15.80;;
15082;SDS011;7640;53.116;6.878;2023-02-12T10:33:54;29.73;;;17.10;;
15082;SDS011;7640;53.116;6.878;2023-02-12T10:36:30;34.33;;;16.53;;
15082;SDS011;7640;53.116;6.878;2023-02-12T10:39:11;30.37;;;16.67;;
15082;SDS011;7640;53.116;6.878;2023-02-12T10:41:46;31.33;;;17.57;;
15082;SDS011;7640;53.116;6.878;2023-02-12T10:44:21;33.60;;;17.27;;
15082;SDS011;7640;53.116;6.878;2023-02-12T10:46:51;29.00;;;16.13;;
15082;SDS011;7640;53.116;6.878;2023-02-12T10:49:19;32.13;;;16.67;;
15082;SDS011;7640;53.116;6.878;2023-02-12T10:51:56;33.83;;;17.07;;
15082;SDS011;7640;53.116;6.878;2023-02-12T10:54:33;30.10;;;16.03;;
15082;SDS011;7640;53.116;6.878;2023-02-12T10:57:07;31.87;;;16.73;;
15082;SDS011;7640;53.116;6.878;2023-02-12T10:59:41;35.60;;;16.93;;
15082;SDS011;7640;53.116;6.878;2023-02-12T11:02:23;27.70;;;15.47;;
15082;SDS011;7640;53.116;6.878;2023-02-12T11:04:54;27.97;;;16.70;;
15082;SDS011;7640;53.116;6.878;2023-02-12T11:07:26;26.80;;;15.70;;
15082;SDS011;7640;53.116;6.878;2023-02-12T11:09:55;26.70;;;15.70;;
15082;SDS011;7640;53.116;6.878;2023-02-12T11:12:27;23.77;;;15.23;;
15082;SDS011;7640;53.116;6.878;2023-02-12T11:15:02;26.20;;;15.30;;
15082;SDS011;7640;53.116;6.878;2023-02-12T11:17:41;26.07;;;15.03;;
15082;SDS011;7640;53.116;6.878;2023-02-12T11:20:19;25.60;;;15.43;;
15082;SDS011;7640;53.116;6.878;2023-02-12T11:22:52;24.10;;;14.80;;
15082;SDS011;7640;53.116;6.878;2023-02-12T11:25:24;26.23;;;15.13;;
15082;SDS011;7640;53.116;6.878;2023-02-12T11:28:00;27.43;;;15.77;;
15082;SDS011;7640;53.116;6.878;2023-02-12T11:30:48;29.90;;;15.60;;
15082;SDS011;7640;53.116;6.878;2023-02-12T11:33:23;25.20;;;14.83;;
15082;SDS011;7640;53.116;6.878;2023-02-12T11:36:02;23.73;;;13.70;;
15082;SDS011;7640;53.116;6.878;2023-02-12T11:38:38;23.70;;;14.20;;
15082;SDS011;7640;53.116;6.878;2023-02-12T11:41:25;24.87;;;14.13;;
15082;SDS011;7640;53.116;6.878;2023-02-12T11:44:01;20.90;;;13.50;;
15082;SDS011;7640;53.116;6.878;2023-02-12T11:46:37;24.57;;;13.53;;
15082;SDS011;7640;53.116;6.878;2023-02-12T11:49:13;21.50;;;13.57;;
15082;SDS011;7640;53.116;6.878;2023-02-12T11:51:48;24.13;;;13.83;;
15082;SDS011;7640;53.116;6.878;2023-02-12T11:54:18;20.87;;;13.87;;
15082;SDS011;7640;53.116;6.878;2023-02-12T11:56:52;21.03;;;13.23;;
15082;SDS011;7640;53.116;6.878;2023-02-12T11:59:26;21.90;;;13.93;;
15082;SDS011;7640;53.116;6.878;2023-02-12T12:02:03;20.83;;;13.27;;
15082;SDS011;7640;53.116;6.878;2023-02-12T12:04:45;22.97;;;13.00;;
15082;SDS011;7640;53.116;6.878;2023-02-12T12:07:18;22.47;;;13.67;;
15082;SDS011;7640;53.116;6.878;2023-02-12T12:09:54;21.37;;;13.20;;
15082;SDS011;7640;53.116;6.878;2023-02-12T12:12:30;18.90;;;11.87;;
15082;SDS011;7640;53.116;6.878;2023-02-12T12:15:09;20.23;;;12.37;;
15082;SDS011;7640;53.116;6.878;2023-02-12T12:18:07;19.27;;;12.13;;
15082;SDS011;7640;53.116;6.878;2023-02-12T12:21:02;15.20;;;10.73;;
15082;SDS011;7640;53.116;6.878;2023-02-12T12:23:41;16.57;;;10.97;;
15082;SDS011;7640;53.116;6.878;2023-02-12T12:26:15;20.67;;;12.10;;
15082;SDS011;7640;53.116;6.878;2023-02-12T12:28:51;15.90;;;10.70;;
15082;SDS011;7640;53.116;6.878;2023-02-12T12:31:27;19.27;;;11.10;;
15082;SDS011;7640;53.116;6.878;2023-02-12T12:34:02;16.60;;;11.27;;
15082;SDS011;7640;53.116;6.878;2023-02-12T12:36:47;9.47;;;5.67;;
15082;SDS011;7640;53.116;6.878;2023-02-12T12:39:31;6.83;;;4.37;;
15082;SDS011;7640;53.116;6.878;2023-02-12T12:42:23;6.33;;;3.60;;
15082;SDS011;7640;53.116;6.878;2023-02-12T12:48:34;6.67;;;3.27;;
15082;SDS011;7640;53.116;6.878;2023-02-12T12:51:20;6.83;;;3.23;;
15082;SDS011;7640;53.116;6.878;2023-02-12T12:54:04;6.23;;;4.37;;
15082;SDS011;7640;53.116;6.878;2023-02-12T12:56:57;8.17;;;4.87;;
15082;SDS011;7640;53.116;6.878;2023-02-12T13:05:51;8.53;;;5.40;;
15082;SDS011;7640;53.116;6.878;2023-02-12T13:08:35;8.63;;;6.00;;
15082;SDS011;7640;53.116;6.878;2023-02-12T13:11:22;8.07;;;5.70;;
15082;SDS011;7640;53.116;6.878;2023-02-12T13:14:07;9.00;;;5.83;;
15082;SDS011;7640;53.116;6.878;2023-02-12T13:16:59;10.73;;;6.67;;
15082;SDS011;7640;53.116;6.878;2023-02-12T13:19:40;10.43;;;6.70;;
15082;SDS011;7640;53.116;6.878;2023-02-12T13:22:23;9.43;;;6.50;;
15082;SDS011;7640;53.116;6.878;2023-02-12T13:25:00;12.97;;;7.30;;
15082;SDS011;7640;53.116;6.878;2023-02-12T13:27:40;10.73;;;6.77;;
15082;SDS011;7640;53.116;6.878;2023-02-12T13:30:16;10.97;;;6.33;;
15082;SDS011;7640;53.116;6.878;2023-02-12T13:32:49;11.73;;;7.43;;
15082;SDS011;7640;53.116;6.878;2023-02-12T13:35:30;11.40;;;7.10;;
15082;SDS011;7640;53.116;6.878;2023-02-12T13:38:01;11.10;;;6.93;;
15082;SDS011;7640;53.116;6.878;2023-02-12T13:40:31;10.10;;;7.13;;
15082;SDS011;7640;53.116;6.878;2023-02-12T13:43:04;12.37;;;7.47;;
15082;SDS011;7640;53.116;6.878;2023-02-12T13:45:44;9.83;;;6.10;;
15082;SDS011;7640;53.116;6.878;2023-02-12T13:48:22;8.87;;;6.00;;
15082;SDS011;7640;53.116;6.878;2023-02-12T13:51:05;8.03;;;5.60;;
15082;SDS011;7640;53.116;6.878;2023-02-12T13:53:45;8.47;;;5.97;;
15082;SDS011;7640;53.116;6.878;2023-02-12T13:56:31;8.40;;;5.70;;
15082;SDS011;7640;53.116;6.878;2023-02-12T14:08:04;8.73;;;5.97;;
15082;SDS011;7640;53.116;6.878;2023-02-12T14:10:34;11.03;;;6.13;;
15082;SDS011;7640;53.116;6.878;2023-02-12T14:13:14;9.70;;;6.43;;
15082;SDS011;7640;53.116;6.878;2023-02-12T14:15:47;7.90;;;5.43;;
15082;SDS011;7640;53.116;6.878;2023-02-12T14:18:24;7.43;;;5.43;;
15082;SDS011;7640;53.116;6.878;2023-02-12T14:27:34;8.20;;;5.00;;
15082;SDS011;7640;53.116;6.878;2023-02-12T14:30:20;6.60;;;4.87;;
15082;SDS011;7640;53.116;6.878;2023-02-12T14:32:58;6.80;;;4.77;;
15082;SDS011;7640;53.116;6.878;2023-02-12T14:36:12;5.77;;;4.43;;
15082;SDS011;7640;53.116;6.878;2023-02-12T14:41:33;3.00;;;2.57;;
15082;SDS011;7640;53.116;6.878;2023-02-12T14:50:21;3.80;;;2.07;;
15082;SDS011;7640;53.116;6.878;2023-02-12T14:52:58;2.90;;;1.80;;
15082;SDS011;7640;53.116;6.878;2023-02-12T14:55:34;2.87;;;1.50;;
15082;SDS011;7640;53.116;6.878;2023-02-12T14:58:05;2.13;;;1.63;;
15082;SDS011;7640;53.116;6.878;2023-02-12T15:00:46;3.60;;;1.83;;
15082;SDS011;7640;53.116;6.878;2023-02-12T15:03:22;3.03;;;2.00;;
15082;SDS011;7640;53.116;6.878;2023-02-12T15:08:44;2.60;;;2.10;;
15082;SDS011;7640;53.116;6.878;2023-02-12T15:11:19;4.33;;;2.53;;
15082;SDS011;7640;53.116;6.878;2023-02-12T15:14:10;3.27;;;2.23;;
15082;SDS011;7640;53.116;6.878;2023-02-12T15:16:44;2.90;;;2.27;;
15082;SDS011;7640;53.116;6.878;2023-02-12T15:19:26;3.77;;;2.17;;
15082;SDS011;7640;53.116;6.878;2023-02-12T15:22:11;3.30;;;2.47;;
15082;SDS011;7640;53.116;6.878;2023-02-12T15:24:49;4.23;;;2.63;;
15082;SDS011;7640;53.116;6.878;2023-02-12T15:27:18;3.40;;;2.17;;
15082;SDS011;7640;53.116;6.878;2023-02-12T15:29:49;4.43;;;2.77;;
15082;SDS011;7640;53.116;6.878;2023-02-12T15:32:21;3.90;;;2.50;;
15082;SDS011;7640;53.116;6.878;2023-02-12T15:34:52;4.43;;;2.40;;
15082;SDS011;7640;53.116;6.878;2023-02-12T15:37:22;3.20;;;2.50;;
15082;SDS011;7640;53.116;6.878;2023-02-12T15:39:54;3.50;;;2.33;;
15082;SDS011;7640;53.116;6.878;2023-02-12T15:42:26;3.77;;;2.30;;
15082;SDS011;7640;53.116;6.878;2023-02-12T15:45:10;3.57;;;2.23;;
15082;SDS011;7640;53.116;6.878;2023-02-12T15:47:54;3.83;;;2.43;;
15082;SDS011;7640;53.116;6.878;2023-02-12T15:50:33;3.03;;;2.50;;
15082;SDS011;7640;53.116;6.878;2023-02-12T15:53:13;5.40;;;2.80;;
15082;SDS011;7640;53.116;6.878;2023-02-12T15:55:43;3.43;;;2.53;;
15082;SDS011;7640;53.116;6.878;2023-02-12T15:58:18;5.20;;;2.90;;
15082;SDS011;7640;53.116;6.878;2023-02-12T16:00:52;4.37;;;2.70;;
15082;SDS011;7640;53.116;6.878;2023-02-12T16:03:23;3.67;;;2.70;;